Time;durP1;ratioP1;P1;durP2;ratioP2;P2;SDS_P1;SDS_P2;PMS_P1;PMS_P2;Temp;Humidity;BMP_temperature;BMP_pressure;BME280_temperature;BME280_humidity;BME280_pressure;Samples;Min_cycle;Max_cycle;Signal;HPM_P1;HPM_P2
2021/01/01 00:08:41;;;;;;;25.15;14.93;;;;;;;3.15;100.00;99220.03;18523659;28;20133;-73
2021/01/01 00:17:42;;;;;;;29.08;16.35;;;;;;;3.13;100.00;99224.44;18507051;28;20513;-73
2021/01/01 00:27:08;;;;;;;29.90;16.67;;;;;;;3.00;100.00;99213.78;18521716;28;20042;-72
2021/01/01 00:36:33;;;;;;;29.27;16.40;;;;;;;2.85;100.00;99216.16;18543151;28;20046;-73
2021/01/01 00:45:58;;;;;;;25.85;15.50;;;;;;;2.63;100.00;99205.91;18549193;28;20039;-73
2021/01/01 00:55:24;;;;;;;22.65;14.15;;;;;;;2.38;100.00;99218.97;18521003;28;20046;-73
2021/01/01 01:04:49;;;;;;;22.45;13.50;;;;;;;2.22;100.00;99243.72;18517765;28;20042;-73
2021/01/01 01:14:14;;;;;;;22.60;13.00;;;;;;;2.08;100.00;99251.97;18519851;28;20577;-72
2021/01/01 01:23:40;;;;;;;30.73;17.98;;;;;;;1.98;100.00;99260.97;18516697;28;20034;-71
2021/01/01 01:33:06;;;;;;;42.40;21.50;;;;;;;1.86;100.00;99263.16;18515734;28;20079;-71
2021/01/01 01:42:31;;;;;;;30.17;17.23;;;;;;;1.77;100.00;99281.56;18515277;28;20487;-71
2021/01/01 01:51:56;;;;;;;31.70;17.33;;;;;;;1.73;100.00;99285.16;18516162;28;20054;-73
2021/01/01 02:01:22;;;;;;;33.35;18.33;;;;;;;1.64;100.00;99291.47;18525849;28;20051;-73
2021/01/01 02:10:51;;;;;;;32.38;16.83;;;;;;;1.60;100.00;99300.22;18499480;28;20044;-73
2021/01/01 02:20:17;;;;;;;28.67;15.02;;;;;;;1.60;100.00;99313.13;18541309;28;20035;-73
2021/01/01 02:29:43;;;;;;;24.52;13.52;;;;;;;1.65;100.00;99317.22;18506839;28;20035;-73
2021/01/01 02:39:09;;;;;;;24.33;12.55;;;;;;;1.71;100.00;99329.91;18527341;28;20705;-73
2021/01/01 02:49:24;;;;;;;24.13;12.40;;;;;;;1.83;100.00;99322.63;18533446;28;20039;-72
2021/01/01 02:59:40;;;;;;;23.73;12.35;;;;;;;1.85;100.00;99331.97;18523392;28;20043;-73
2021/01/01 03:09:55;;;;;;;22.20;11.32;;;;;;;1.82;100.00;99339.84;18525335;28;20047;-72
2021/01/01 03:20:11;;;;;;;19.50;10.65;;;;;;;1.78;100.00;99337.44;18521713;28;20043;-73
2021/01/01 03:30:26;;;;;;;15.30;8.20;;;;;;;1.75;100.00;99337.53;18525249;28;20034;-72
2021/01/01 03:40:41;;;;;;;15.63;7.57;;;;;;;1.71;100.00;99332.47;18518781;28;20302;-72
2021/01/01 03:50:56;;;;;;;14.25;7.32;;;;;;;1.57;100.00;99332.13;18511640;28;20428;-72
2021/01/01 04:01:11;;;;;;;11.80;6.30;;;;;;;1.42;100.00;99342.13;18513498;28;20430;-73
2021/01/01 04:11:27;;;;;;;15.18;6.75;;;;;;;1.25;100.00;99353.84;18515514;28;20471;-73
2021/01/01 04:21:43;;;;;;;13.20;6.70;;;;;;;1.13;100.00;99350.81;18517720;28;20038;-72
2021/01/01 04:31:58;;;;;;;12.50;5.97;;;;;;;1.00;100.00;99354.69;18498783;28;20055;-72
2021/01/01 04:42:14;;;;;;;15.15;6.70;;;;;;;0.92;100.00;99356.66;18511637;28;20039;-72
2021/01/01 04:52:29;;;;;;;12.70;6.30;;;;;;;0.79;100.00;99367.38;18509185;28;20035;-72
2021/01/01 05:02:45;;;;;;;12.07;6.57;;;;;;;0.68;100.00;99382.31;18506756;28;20388;-73
2021/01/01 05:13:02;;;;;;;13.45;5.65;;;;;;;0.62;100.00;99390.19;18512362;28;20039;-73
2021/01/01 05:23:17;;;;;;;14.10;6.03;;;;;;;0.57;100.00;99396.38;18514334;28;20051;-73
2021/01/01 10:42:17;;;;;;;24.40;10.68;;;;;;;3.42;97.93;99631.84;18516711;28;20062;-69
2021/01/01 10:51:25;;;;;;;21.98;11.00;;;;;;;3.69;95.10;99622.19;18524790;28;20039;-69
2021/01/01 11:00:26;;;;;;;20.30;9.68;;;;;;;3.55;94.58;99616.72;18519915;28;20105;-68
2021/01/01 11:09:29;;;;;;;24.65;11.63;;;;;;;3.69;95.63;99617.88;18517073;28;20062;-70
2021/01/01 12:24:16;;;;;;;14.95;8.27;;;;;;;5.51;84.54;99578.91;18470887;28;20487;-69
2021/01/01 12:33:17;;;;;;;15.93;8.50;;;;;;;5.57;83.32;99582.97;18474996;28;20055;-69
2021/01/01 12:42:19;;;;;;;17.60;9.20;;;;;;;5.31;86.02;99593.72;18464064;28;20047;-69
2021/01/01 12:51:20;;;;;;;14.20;7.80;;;;;;;4.90;84.69;99596.41;18459276;28;20082;-70
2021/01/01 13:00:23;;;;;;;14.48;7.60;;;;;;;4.15;85.07;99608.28;18465512;28;20043;-70
2021/01/01 13:09:24;;;;;;;11.23;6.13;;;;;;;4.13;85.71;99612.66;18449665;28;20098;-69
2021/01/01 13:18:25;;;;;;;10.90;5.75;;;;;;;4.07;86.20;99618.91;18446656;28;20656;-69
2021/01/01 13:27:26;;;;;;;11.30;5.72;;;;;;;4.08;87.01;99625.78;18442408;28;20052;-69
2021/01/01 13:36:27;;;;;;;12.20;5.63;;;;;;;4.01;89.19;99628.69;18441423;28;20048;-70
2021/01/01 13:45:28;;;;;;;10.63;5.07;;;;;;;4.03;88.49;99637.22;18434781;28;20466;-71
2021/01/01 13:54:29;;;;;;;10.50;5.47;;;;;;;3.98;88.04;99637.41;18443904;28;20054;-70
2021/01/01 14:03:30;;;;;;;9.77;5.38;;;;;;;3.92;89.76;99653.19;18442118;28;20047;-71
2021/01/01 14:12:40;;;;;;;11.82;6.07;;;;;;;3.71;92.35;99648.84;18433269;29;20569;-71
2021/01/01 14:21:43;;;;;;;9.88;5.25;;;;;;;3.55;93.96;99652.94;18441067;28;20079;-71
2021/01/01 14:31:09;;;;;;;12.43;6.72;;;;;;;3.51;93.31;99662.53;18481674;28;20603;-71
2021/01/01 14:40:11;;;;;;;10.45;6.00;;;;;;;3.54;92.73;99666.75;18459240;29;20047;-70
2021/01/01 14:49:37;;;;;;;12.38;6.63;;;;;;;3.39;94.11;99663.00;18452043;28;20051;-70
2021/01/01 14:58:38;;;;;;;11.68;6.35;;;;;;;3.26;97.74;99669.50;18457218;28;20051;-70
2021/01/01 15:07:39;;;;;;;11.25;6.45;;;;;;;3.04;100.00;99674.63;18445158;29;20055;-70
2021/01/01 15:16:40;;;;;;;11.15;6.43;;;;;;;2.84;100.00;99682.22;18431399;28;20582;-70
2021/01/01 15:25:41;;;;;;;11.85;5.75;;;;;;;2.76;100.00;99694.53;18480322;28;20050;-70
2021/01/01 15:34:42;;;;;;;12.93;6.95;;;;;;;2.62;100.00;99700.19;18445750;28;20043;-70
2021/01/01 15:43:44;;;;;;;18.25;9.10;;;;;;;2.66;100.00;99698.31;18423599;28;20051;-70
2021/01/01 15:52:44;;;;;;;12.02;6.50;;;;;;;2.60;100.00;99714.88;18414851;29;20842;-70
2021/01/01 16:01:45;;;;;;;12.98;8.00;;;;;;;2.65;100.00;99722.47;18410783;28;20051;-71
2021/01/01 16:10:46;;;;;;;35.00;18.20;;;;;;;2.63;100.00;99721.69;18450888;28;20047;-69
2021/01/01 16:19:47;;;;;;;26.88;13.40;;;;;;;2.56;100.00;99736.53;18449214;28;20488;-69
2021/01/01 16:28:48;;;;;;;23.73;13.77;;;;;;;2.71;100.00;99743.78;18443506;29;20043;-70
2021/01/01 16:37:49;;;;;;;25.17;14.77;;;;;;;2.73;100.00;99751.50;18431973;28;20090;-70
2021/01/01 16:46:50;;;;;;;21.67;12.10;;;;;;;2.78;100.00;99747.03;18439232;28;20500;-70
2021/01/01 16:55:51;;;;;;;25.48;13.52;;;;;;;2.55;100.00;99748.59;18441586;28;20118;-70
2021/01/01 17:04:52;;;;;;;24.35;14.02;;;;;;;2.33;100.00;99757.94;18465512;28;20047;-69
2021/01/01 17:13:54;;;;;;;17.27;10.82;;;;;;;2.32;100.00;99764.00;18447005;28;20098;-70
2021/01/01 17:22:56;;;;;;;28.93;14.27;;;;;;;2.36;100.00;99767.31;18445807;28;20137;-70
2021/01/01 17:31:57;;;;;;;30.90;15.40;;;;;;;2.35;100.00;99775.94;18448621;28;20605;-70
2021/01/01 17:40:58;;;;;;;22.95;13.65;;;;;;;2.38;100.00;99774.13;18443779;28;20134;-70
2021/01/01 17:49:59;;;;;;;42.78;25.08;;;;;;;2.47;100.00;99784.19;18443414;29;20067;-70
2021/01/01 17:59:00;;;;;;;25.40;14.93;;;;;;;2.46;100.00;99805.72;18446506;28;20090;-70
2021/01/01 18:08:01;;;;;;;24.08;13.00;;;;;;;2.44;100.00;99817.81;18449076;28;20039;-69
2021/01/01 18:17:02;;;;;;;33.33;19.08;;;;;;;2.39;100.00;99824.88;18457340;29;20047;-69
2021/01/01 18:26:10;;;;;;;21.70;13.85;;;;;;;2.17;100.00;99826.41;18494428;28;20101;-69
2021/01/01 18:35:13;;;;;;;27.90;15.75;;;;;;;1.88;100.00;99834.97;18467954;28;20074;-69
2021/01/01 18:44:16;;;;;;;17.10;9.33;;;;;;;1.62;100.00;99840.03;18454451;29;20515;-69
2021/01/01 18:53:18;;;;;;;16.77;8.68;;;;;;;1.43;100.00;99844.81;18454334;29;20067;-69
2021/01/01 19:02:35;;;;;;;15.35;9.50;;;;;;;1.23;100.00;99845.31;18451696;28;20122;-69
2021/01/01 19:11:36;;;;;;;17.63;9.70;;;;;;;0.96;100.00;99850.31;18484676;28;20044;-69
2021/01/01 19:20:49;;;;;;;17.88;9.43;;;;;;;0.75;100.00;99849.94;18479490;28;20043;-69
2021/01/01 19:29:58;;;;;;;17.95;10.93;;;;;;;0.56;100.00;99864.09;18473411;28;20145;-69
2021/01/01 19:39:29;;;;;;;20.27;10.43;;;;;;;0.47;100.00;99859.16;18458293;28;20066;-69
2021/01/01 19:49:07;;;;;;;20.67;10.63;;;;;;;0.43;100.00;99871.25;18453727;28;20050;-69
2021/01/01 19:58:39;;;;;;;18.85;9.75;;;;;;;0.46;100.00;99882.38;18446025;29;20158;-70
2021/01/01 20:07:41;;;;;;;20.70;11.85;;;;;;;0.46;100.00;99883.22;18427513;28;20047;-69
2021/01/01 20:16:42;;;;;;;30.90;15.23;;;;;;;0.39;100.00;99889.38;18447547;29;20514;-69
2021/01/01 20:25:43;;;;;;;33.33;18.33;;;;;;;0.25;100.00;99894.81;18447455;28;20051;-69
2021/01/01 20:34:46;;;;;;;23.33;12.10;;;;;;;0.04;100.00;99897.81;18447542;29;20050;-70
2021/01/01 20:44:21;;;;;;;22.67;12.18;;;;;;;-0.13;100.00;99902.44;18438485;28;20062;-71
2021/01/01 21:02:33;;;;;;;26.33;13.05;;;;;;;-0.22;100.00;99911.19;18471652;28;20055;-69
2021/01/01 21:12:03;;;;;;;28.25;14.63;;;;;;;-0.28;100.00;99911.28;18446270;29;20085;-69
2021/01/01 21:21:24;;;;;;;27.20;13.98;;;;;;;-0.33;100.00;99915.66;18444820;29;20065;-70
2021/01/01 21:30:34;;;;;;;30.02;15.40;;;;;;;-0.38;100.00;99914.91;18443546;28;20089;-68
2021/01/01 21:39:47;;;;;;;25.42;14.27;;;;;;;-0.42;100.00;99910.69;18457221;28;20043;-68
2021/01/01 21:48:58;;;;;;;26.23;14.87;;;;;;;-0.41;100.00;99930.38;18500855;28;20082;-69
2021/01/01 21:58:00;;;;;;;27.77;14.98;;;;;;;-0.36;100.00;99926.00;18505256;28;20061;-69
2021/01/01 22:07:06;;;;;;;30.07;16.27;;;;;;;-0.34;100.00;99928.53;18461651;28;20071;-69
2021/01/01 22:16:22;;;;;;;30.88;16.40;;;;;;;-0.28;100.00;99934.44;18456083;28;20077;-69
2021/01/01 22:25:23;;;;;;;37.17;19.60;;;;;;;-0.15;100.00;99941.03;18457486;29;20067;-69
2021/01/01 22:34:24;;;;;;;31.25;17.83;;;;;;;-0.02;100.00;99947.66;18452042;28;20075;-70
2021/01/01 22:43:25;;;;;;;33.28;18.90;;;;;;;0.02;100.00;99958.75;18449724;28;20086;-69
2021/01/01 22:52:26;;;;;;;29.60;18.20;;;;;;;0.14;100.00;99961.09;18447923;28;20143;-69
2021/01/01 23:01:32;;;;;;;33.35;18.10;;;;;;;0.05;100.00;99965.56;18435779;28;20515;-69
2021/01/01 23:10:33;;;;;;;28.80;16.65;;;;;;;0.04;100.00;99961.28;18449801;28;20039;-69
2021/01/01 23:19:43;;;;;;;28.93;15.50;;;;;;;0.10;100.00;99967.19;18447964;29;20107;-69
2021/01/01 23:28:56;;;;;;;32.47;17.42;;;;;;;0.18;100.00;99982.47;18447081;29;20073;-69
2021/01/01 23:38:30;;;;;;;33.75;18.70;;;;;;;0.15;100.00;99972.22;18451439;28;20133;-69
2021/01/01 23:47:36;;;;;;;29.42;16.02;;;;;;;0.22;100.00;99966.94;18426086;29;20456;-69
2021/01/01 23:56:38;;;;;;;32.30;17.17;;;;;;;0.25;100.00;99976.34;18445847;28;20515;-69
